Time;durP1;ratioP1;P1;durP2;ratioP2;P2;SDS_P1;SDS_P2;PMS_P1;PMS_P2;Temp;Humidity;BMP_temperature;BMP_pressure;BME280_temperature;BME280_humidity;BME280_pressure;Samples;Min_cycle;Max_cycle;Signal;HPM_P1;HPM_P2
2022/08/27 00:00:43;;;;;;;12.40;8.47;;;;;;;;;;5047555;28;20183;-73
2022/08/27 00:03:12;;;;;;;13.07;8.83;;;;;;;;;;5041491;28;20194;-73
2022/08/27 00:05:40;;;;;;;11.87;9.23;;;;;;;;;;5049438;28;20202;-74
2022/08/27 00:08:07;;;;;;;14.10;8.50;;;;;;;;;;5033402;28;20658;-73
2022/08/27 00:10:35;;;;;;;11.00;8.90;;;;;;;;;;5050327;28;20779;-73
2022/08/27 00:13:04;;;;;;;15.97;8.50;;;;;;;;;;5015842;28;20256;-73
2022/08/27 00:15:32;;;;;;;14.07;10.33;;;;;;;;;;5049648;28;20201;-74
2022/08/27 00:17:59;;;;;;;13.73;9.50;;;;;;;;;;5033214;28;20192;-72
2022/08/27 00:20:27;;;;;;;11.53;8.50;;;;;;;;;;5038236;28;20280;-73
2022/08/27 00:22:54;;;;;;;11.40;10.00;;;;;;;;;;5050350;28;20199;-72
2022/08/27 00:25:39;;;;;;;11.40;9.03;;;;;;;;;;5033263;28;20728;-74
2022/08/27 00:28:09;;;;;;;10.80;8.40;;;;;;;;;;5032731;28;20205;-72
2022/08/27 00:30:36;;;;;;;15.07;9.07;;;;;;;;;;5032944;28;20214;-72
2022/08/27 00:33:05;;;;;;;12.53;8.37;;;;;;;;;;5049955;28;20301;-73
2022/08/27 00:35:32;;;;;;;14.20;8.53;;;;;;;;;;5050591;28;20206;-73
2022/08/27 00:38:09;;;;;;;12.70;7.53;;;;;;;;;;5038566;28;20203;-73
2022/08/27 00:40:37;;;;;;;14.37;7.90;;;;;;;;;;5048334;28;20206;-74
2022/08/27 00:43:40;;;;;;;11.73;9.07;;;;;;;;;;5046311;28;20260;-72
2022/08/27 00:46:11;;;;;;;12.50;7.70;;;;;;;;;;5039795;28;20830;-72
2022/08/27 00:48:39;;;;;;;11.07;8.27;;;;;;;;;;5032929;28;20230;-73
2022/08/27 00:51:06;;;;;;;13.53;9.53;;;;;;;;;;5031480;28;20227;-72
2022/08/27 00:53:34;;;;;;;15.07;8.43;;;;;;;;;;5031873;28;20241;-72
2022/08/27 00:56:27;;;;;;;11.10;9.03;;;;;;;;;;5023326;28;20183;-72
2022/08/27 00:58:57;;;;;;;10.63;8.60;;;;;;;;;;5017020;28;20183;-72
2022/08/27 01:01:27;;;;;;;13.00;9.07;;;;;;;;;;5030508;28;20225;-72
2022/08/27 01:03:56;;;;;;;12.73;9.40;;;;;;;;;;5018108;28;20198;-72
2022/08/27 01:06:25;;;;;;;12.60;9.40;;;;;;;;;;5050121;28;20607;-73
2022/08/27 01:08:56;;;;;;;13.17;8.87;;;;;;;;;;5021771;28;20199;-72
2022/08/27 01:11:25;;;;;;;12.33;8.77;;;;;;;;;;5044701;28;20227;-72
2022/08/27 01:13:54;;;;;;;12.27;8.60;;;;;;;;;;5049504;28;20226;-72
2022/08/27 01:16:28;;;;;;;13.80;9.17;;;;;;;;;;5031073;28;20195;-72
2022/08/27 01:18:56;;;;;;;11.60;8.00;;;;;;;;;;5031300;28;20186;-72
2022/08/27 01:21:33;;;;;;;10.23;8.50;;;;;;;;;;5047060;28;20281;-72
2022/08/27 01:24:03;;;;;;;9.23;8.27;;;;;;;;;;5030504;28;20226;-72
2022/08/27 01:26:29;;;;;;;12.13;8.50;;;;;;;;;;5049932;28;20198;-72
2022/08/27 01:28:56;;;;;;;12.90;7.60;;;;;;;;;;5032378;28;20285;-72
2022/08/27 01:31:41;;;;;;;12.90;8.47;;;;;;;;;;5044404;28;20186;-72
2022/08/27 01:34:08;;;;;;;14.33;8.80;;;;;;;;;;5048974;28;20199;-73
2022/08/27 01:36:52;;;;;;;12.20;8.57;;;;;;;;;;5038890;28;20181;-72
2022/08/27 01:39:25;;;;;;;11.23;8.63;;;;;;;;;;5049228;28;20252;-73
2022/08/27 01:41:58;;;;;;;15.90;8.60;;;;;;;;;;5031603;28;20206;-72
2022/08/27 01:44:28;;;;;;;14.43;9.10;;;;;;;;;;5032392;28;20740;-72
2022/08/27 01:46:57;;;;;;;15.67;8.80;;;;;;;;;;5031193;28;20260;-71
2022/08/27 01:49:26;;;;;;;10.77;8.23;;;;;;;;;;5046436;28;20206;-72
2022/08/27 01:51:55;;;;;;;15.53;8.77;;;;;;;;;;5048043;28;20184;-72
2022/08/27 01:54:22;;;;;;;10.97;7.90;;;;;;;;;;5030542;28;20179;-72
2022/08/27 01:56:50;;;;;;;10.73;8.07;;;;;;;;;;5039408;28;20524;-72
2022/08/27 01:59:17;;;;;;;13.90;9.57;;;;;;;;;;5049207;28;20191;-72
2022/08/27 02:01:44;;;;;;;13.03;8.37;;;;;;;;;;5047551;28;20625;-72
2022/08/27 02:04:11;;;;;;;12.37;8.33;;;;;;;;;;5046196;28;20218;-73
2022/08/27 02:06:37;;;;;;;12.27;8.07;;;;;;;;;;5043877;28;20190;-72
2022/08/27 02:09:22;;;;;;;12.90;8.27;;;;;;;;;;5048606;28;20185;-72
2022/08/27 02:11:49;;;;;;;11.83;7.83;;;;;;;;;;5047524;28;20194;-72
2022/08/27 02:14:16;;;;;;;11.97;7.87;;;;;;;;;;5030830;28;20736;-72
2022/08/27 02:16:42;;;;;;;11.77;8.30;;;;;;;;;;5047350;28;21065;-73
2022/08/27 02:19:18;;;;;;;11.53;8.47;;;;;;;;;;5046819;28;20209;-72
2022/08/27 02:21:46;;;;;;;11.87;8.37;;;;;;;;;;5047215;28;20179;-72
2022/08/27 02:24:16;;;;;;;13.10;8.67;;;;;;;;;;5046867;28;20974;-71
2022/08/27 02:26:44;;;;;;;11.83;7.80;;;;;;;;;;5029257;28;20183;-72
2022/08/27 02:29:28;;;;;;;10.00;7.83;;;;;;;;;;5049384;28;20175;-72
2022/08/27 02:31:58;;;;;;;12.10;8.17;;;;;;;;;;5030939;28;20191;-72
2022/08/27 02:34:26;;;;;;;11.87;8.37;;;;;;;;;;5031516;28;20518;-72
2022/08/27 02:36:53;;;;;;;12.73;8.93;;;;;;;;;;5046181;28;20190;-75
2022/08/27 02:39:20;;;;;;;12.80;8.40;;;;;;;;;;4997688;28;20643;-72
2022/08/27 02:41:47;;;;;;;12.87;9.50;;;;;;;;;;5044994;28;20659;-72
2022/08/27 02:44:14;;;;;;;13.47;10.27;;;;;;;;;;5028295;28;20995;-72
2022/08/27 02:46:43;;;;;;;13.93;10.10;;;;;;;;;;5029196;28;20187;-72
2022/08/27 02:49:17;;;;;;;14.30;10.30;;;;;;;;;;5047835;28;20198;-72
2022/08/27 02:51:45;;;;;;;15.97;9.97;;;;;;;;;;5029580;28;20230;-72
2022/08/27 02:54:31;;;;;;;14.93;9.20;;;;;;;;;;5043842;28;20182;-72
2022/08/27 02:57:02;;;;;;;12.80;8.90;;;;;;;;;;5044973;28;20202;-72
2022/08/27 02:59:29;;;;;;;13.53;9.30;;;;;;;;;;5031263;28;20200;-72
2022/08/27 03:01:57;;;;;;;12.07;8.20;;;;;;;;;;5047749;28;20266;-72
2022/08/27 03:04:28;;;;;;;11.60;8.20;;;;;;;;;;5030532;28;20731;-72
2022/08/27 03:07:12;;;;;;;12.17;7.30;;;;;;;;;;5030554;28;20182;-72
2022/08/27 03:09:49;;;;;;;10.87;8.07;;;;;;;;;;5046626;28;20237;-72
2022/08/27 03:12:43;;;;;;;10.20;8.57;;;;;;;;;;5013962;28;20705;-72
2022/08/27 03:15:13;;;;;;;11.37;8.67;;;;;;;;;;5044684;28;20195;-72
2022/08/27 03:18:17;;;;;;;12.40;7.53;;;;;;;;;;5038263;28;20268;-71
2022/08/27 03:20:45;;;;;;;9.53;7.07;;;;;;;;;;5046513;28;20187;-71
2022/08/27 03:23:33;;;;;;;10.43;7.57;;;;;;;;;;5030886;28;20534;-72
2022/08/27 03:26:04;;;;;;;10.50;7.97;;;;;;;;;;5046586;28;20309;-71
2022/08/27 03:28:36;;;;;;;12.93;8.53;;;;;;;;;;5024378;28;20186;-72
2022/08/27 03:31:12;;;;;;;12.60;8.57;;;;;;;;;;5046720;28;20764;-71
2022/08/27 03:33:42;;;;;;;12.83;7.67;;;;;;;;;;5047230;28;20273;-72
2022/08/27 03:36:16;;;;;;;12.27;7.73;;;;;;;;;;5047488;28;20293;-71
2022/08/27 03:38:46;;;;;;;11.40;7.20;;;;;;;;;;5041999;28;20698;-73
2022/08/27 03:41:16;;;;;;;10.47;7.20;;;;;;;;;;5049373;28;20677;-71
2022/08/27 03:43:51;;;;;;;11.20;6.87;;;;;;;;;;5048104;28;20282;-72
2022/08/27 03:46:19;;;;;;;7.97;7.03;;;;;;;;;;5041067;28;20202;-71
2022/08/27 03:48:48;;;;;;;14.77;7.60;;;;;;;;;;5029827;28;20193;-72
2022/08/27 03:51:24;;;;;;;10.40;7.73;;;;;;;;;;5014494;28;20218;-71
2022/08/27 03:53:51;;;;;;;12.27;6.43;;;;;;;;;;5030362;28;20187;-71
2022/08/27 03:56:18;;;;;;;10.77;7.07;;;;;;;;;;5046205;28;20705;-71
2022/08/27 03:58:46;;;;;;;9.27;6.97;;;;;;;;;;5028878;28;20190;-71
2022/08/27 04:01:13;;;;;;;10.00;7.30;;;;;;;;;;5044133;28;20212;-71
2022/08/27 04:03:40;;;;;;;13.37;8.30;;;;;;;;;;5028973;28;20294;-71
2022/08/27 04:06:07;;;;;;;13.77;8.00;;;;;;;;;;5046820;28;20186;-71
2022/08/27 04:08:43;;;;;;;9.53;7.83;;;;;;;;;;5030399;28;20186;-72
2022/08/27 04:11:11;;;;;;;10.30;7.57;;;;;;;;;;5045035;28;20329;-71
2022/08/27 04:13:50;;;;;;;9.57;7.17;;;;;;;;;;5015565;28;20249;-71
2022/08/27 04:16:30;;;;;;;9.50;7.90;;;;;;;;;;5045670;28;20234;-71
2022/08/27 04:19:03;;;;;;;9.40;8.00;;;;;;;;;;5028047;28;20187;-71
2022/08/27 04:21:38;;;;;;;9.53;7.23;;;;;;;;;;5029914;28;20198;-70
2022/08/27 04:24:11;;;;;;;7.70;6.70;;;;;;;;;;5042228;28;20689;-71
2022/08/27 04:26:41;;;;;;;10.50;7.70;;;;;;;;;;5045299;28;20282;-71
2022/08/27 04:29:12;;;;;;;11.13;7.40;;;;;;;;;;5047877;28;20203;-72
2022/08/27 04:31:44;;;;;;;11.37;6.67;;;;;;;;;;5041543;28;20273;-71
2022/08/27 04:34:23;;;;;;;10.03;7.67;;;;;;;;;;5061806;28;20201;-71
2022/08/27 04:36:54;;;;;;;8.33;7.07;;;;;;;;;;5015669;28;20187;-74
2022/08/27 04:39:28;;;;;;;7.87;6.60;;;;;;;;;;5032007;28;20670;-72
2022/08/27 04:41:58;;;;;;;11.30;8.47;;;;;;;;;;5031533;28;20198;-71
2022/08/27 04:44:49;;;;;;;10.77;8.10;;;;;;;;;;5051095;28;20245;-71
2022/08/27 04:47:48;;;;;;;14.80;8.87;;;;;;;;;;4989568;28;20204;-71
2022/08/27 04:51:42;;;;;;;10.83;9.50;;;;;;;;;;4985633;28;20228;-71
2022/08/27 04:55:08;;;;;;;13.63;10.70;;;;;;;;;;4976185;28;20181;-71
2022/08/27 04:57:51;;;;;;;13.40;9.27;;;;;;;;;;4983878;28;20200;-70
2022/08/27 05:04:38;;;;;;;16.83;10.73;;;;;;;;;;4945054;28;20783;-73
2022/08/27 05:08:46;;;;;;;13.07;10.30;;;;;;;;;;4948409;28;20332;-72
2022/08/27 05:12:10;;;;;;;16.23;10.37;;;;;;;;;;4889557;29;20944;-74
2022/08/27 05:19:20;;;;;;;22.60;11.33;;;;;;;;;;4901809;29;20207;-74
2022/08/27 05:21:52;;;;;;;21.47;10.43;;;;;;;;;;4894097;29;20215;-77
2022/08/27 05:24:37;;;;;;;15.13;9.40;;;;;;;;;;4911481;29;20583;-74
2022/08/27 05:27:29;;;;;;;14.93;10.37;;;;;;;;;;4906814;29;20208;-71
2022/08/27 05:30:20;;;;;;;16.03;9.93;;;;;;;;;;4911033;29;20195;-73
2022/08/27 05:32:48;;;;;;;13.27;9.33;;;;;;;;;;4904683;29;20933;-75
2022/08/27 05:35:15;;;;;;;13.27;9.23;;;;;;;;;;4905785;29;20205;-72
2022/08/27 05:37:42;;;;;;;15.97;9.80;;;;;;;;;;4906258;29;20794;-71
2022/08/27 05:41:02;;;;;;;14.07;9.10;;;;;;;;;;4907676;29;20999;-72
2022/08/27 05:43:30;;;;;;;12.07;9.07;;;;;;;;;;4952681;28;20624;-74
2022/08/27 05:46:00;;;;;;;12.97;9.33;;;;;;;;;;4961764;28;20202;-72
2022/08/27 05:48:32;;;;;;;10.97;8.57;;;;;;;;;;4930472;28;20216;-73
2022/08/27 05:51:29;;;;;;;11.73;8.53;;;;;;;;;;4991171;28;20289;-75
2022/08/27 05:53:57;;;;;;;10.43;8.80;;;;;;;;;;4989655;28;20191;-75
2022/08/27 05:56:44;;;;;;;12.27;8.53;;;;;;;;;;5002105;28;20207;-76
2022/08/27 06:02:41;;;;;;;11.97;9.50;;;;;;;;;;5020849;28;20182;-74
2022/08/27 06:05:08;;;;;;;14.53;8.93;;;;;;;;;;5011984;28;20243;-76
2022/08/27 06:07:35;;;;;;;16.57;9.43;;;;;;;;;;5004156;28;20249;-71
2022/08/27 06:10:06;;;;;;;14.07;9.43;;;;;;;;;;5019771;28;20184;-74
2022/08/27 06:12:34;;;;;;;10.67;9.03;;;;;;;;;;5003658;28;20222;-76
2022/08/27 06:15:01;;;;;;;15.53;8.83;;;;;;;;;;5005256;28;20287;-72
2022/08/27 06:17:28;;;;;;;13.33;8.47;;;;;;;;;;5002671;28;20198;-72
2022/08/27 06:19:55;;;;;;;15.77;8.40;;;;;;;;;;5001482;28;20673;-75
2022/08/27 06:22:23;;;;;;;10.20;8.23;;;;;;;;;;5018539;28;20934;-73
2022/08/27 06:24:51;;;;;;;14.93;8.83;;;;;;;;;;5009775;28;20223;-74
2022/08/27 06:27:19;;;;;;;13.57;8.83;;;;;;;;;;5040949;28;20558;-74
2022/08/27 06:29:46;;;;;;;12.47;9.17;;;;;;;;;;5040289;28;20198;-73
2022/08/27 06:32:13;;;;;;;15.83;9.23;;;;;;;;;;5040831;28;20249;-74
2022/08/27 06:34:40;;;;;;;13.87;8.67;;;;;;;;;;5037540;28;20198;-71
2022/08/27 06:37:08;;;;;;;14.33;8.90;;;;;;;;;;5024806;28;20187;-75
2022/08/27 06:39:36;;;;;;;14.77;9.10;;;;;;;;;;5041773;28;20183;-79
2022/08/27 06:42:08;;;;;;;12.87;8.40;;;;;;;;;;5048043;28;20195;-77
2022/08/27 06:44:36;;;;;;;14.73;8.30;;;;;;;;;;5030138;28;20191;-78
2022/08/27 06:47:04;;;;;;;13.27;8.33;;;;;;;;;;5046898;28;20629;-78
2022/08/27 06:49:33;;;;;;;11.93;7.77;;;;;;;;;;5047426;28;20191;-77
2022/08/27 06:52:00;;;;;;;10.33;8.20;;;;;;;;;;5037926;28;20225;-72
2022/08/27 06:54:27;;;;;;;13.80;7.77;;;;;;;;;;5046222;28;20193;-72
2022/08/27 06:57:12;;;;;;;9.77;7.53;;;;;;;;;;5018859;28;20193;-75
2022/08/27 06:59:39;;;;;;;11.80;7.43;;;;;;;;;;5022785;28;20187;-75
2022/08/27 07:02:06;;;;;;;9.13;7.33;;;;;;;;;;5047847;28;20191;-75
2022/08/27 07:04:33;;;;;;;10.23;7.10;;;;;;;;;;5049815;28;20524;-75
2022/08/27 07:07:01;;;;;;;10.90;7.33;;;;;;;;;;5047446;28;20732;-76
2022/08/27 07:09:30;;;;;;;11.33;7.37;;;;;;;;;;5029953;28;20275;-76
2022/08/27 07:11:57;;;;;;;8.43;7.33;;;;;;;;;;5029636;28;20214;-76
2022/08/27 07:14:25;;;;;;;10.67;7.37;;;;;;;;;;5041023;28;20656;-76
2022/08/27 07:16:52;;;;;;;12.13;6.80;;;;;;;;;;5028872;28;20190;-76
2022/08/27 07:19:19;;;;;;;11.53;7.00;;;;;;;;;;5030864;28;20281;-75
2022/08/27 07:21:47;;;;;;;10.30;7.10;;;;;;;;;;5041023;28;20221;-76
2022/08/27 07:24:14;;;;;;;8.70;6.77;;;;;;;;;;5047907;28;20961;-75
2022/08/27 07:26:42;;;;;;;11.80;7.20;;;;;;;;;;5046864;28;20650;-75
2022/08/27 07:29:09;;;;;;;9.23;7.20;;;;;;;;;;5048355;28;20187;-76
2022/08/27 07:31:37;;;;;;;8.77;6.93;;;;;;;;;;5029138;28;20213;-75
2022/08/27 07:34:04;;;;;;;13.30;7.37;;;;;;;;;;5028069;28;20183;-76
2022/08/27 07:36:31;;;;;;;10.23;6.77;;;;;;;;;;5046231;28;20191;-76
2022/08/27 07:38:58;;;;;;;13.47;6.53;;;;;;;;;;5029202;28;20191;-75
2022/08/27 07:44:28;;;;;;;8.50;6.67;;;;;;;;;;5045264;28;20604;-77
2022/08/27 07:47:00;;;;;;;8.27;6.37;;;;;;;;;;5047127;28;20182;-75
2022/08/27 07:49:28;;;;;;;8.00;6.30;;;;;;;;;;5046409;28;20179;-76
2022/08/27 07:51:55;;;;;;;7.63;6.47;;;;;;;;;;5030518;28;20217;-76
2022/08/27 07:54:23;;;;;;;8.20;6.40;;;;;;;;;;5030296;28;20191;-76
2022/08/27 07:56:51;;;;;;;12.07;6.77;;;;;;;;;;5014473;28;20261;-76
2022/08/27 07:59:35;;;;;;;11.33;7.10;;;;;;;;;;5016016;28;20186;-76
2022/08/27 08:02:02;;;;;;;8.73;6.27;;;;;;;;;;5047446;28;20191;-76
2022/08/27 08:04:46;;;;;;;8.23;6.00;;;;;;;;;;5039069;28;20179;-76
2022/08/27 08:07:13;;;;;;;7.60;6.23;;;;;;;;;;5051941;28;20195;-76
2022/08/27 08:09:57;;;;;;;7.13;6.30;;;;;;;;;;5051659;28;20174;-77
2022/08/27 08:12:24;;;;;;;8.30;5.70;;;;;;;;;;5050596;28;20199;-77
2022/08/27 08:15:09;;;;;;;6.47;5.77;;;;;;;;;;5042737;28;20229;-75
2022/08/27 08:17:36;;;;;;;8.90;5.83;;;;;;;;;;5033081;28;20862;-75
2022/08/27 08:20:04;;;;;;;7.60;5.70;;;;;;;;;;5045680;28;20189;-77
2022/08/27 08:22:51;;;;;;;8.47;5.83;;;;;;;;;;5033443;28;20202;-77
2022/08/27 08:25:36;;;;;;;6.70;5.70;;;;;;;;;;5035762;28;20716;-78
2022/08/27 08:28:04;;;;;;;7.47;5.67;;;;;;;;;;5049463;28;20712;-77
2022/08/27 08:30:32;;;;;;;7.00;5.47;;;;;;;;;;5049166;28;20194;-78
2022/08/27 08:33:01;;;;;;;6.60;5.90;;;;;;;;;;5046223;28;20210;-78
2022/08/27 08:35:28;;;;;;;9.07;5.53;;;;;;;;;;5045536;28;20222;-65
2022/08/27 08:38:06;;;;;;;9.33;5.30;;;;;;;;;;5028103;28;20703;-64
2022/08/27 08:40:43;;;;;;;23.00;6.20;;;;;;;;;;5047376;28;20182;-64
2022/08/27 08:43:34;;;;;;;8.67;5.60;;;;;;;;;;5048415;28;20190;-63
2022/08/27 08:46:06;;;;;;;6.80;5.00;;;;;;;;;;5035475;28;20229;-64
2022/08/27 08:48:34;;;;;;;6.60;5.50;;;;;;;;;;5047182;28;20302;-64
2022/08/27 08:51:07;;;;;;;8.90;5.17;;;;;;;;;;5048738;28;20191;-62
2022/08/27 08:53:34;;;;;;;6.60;5.33;;;;;;;;;;5049726;28;20191;-61
2022/08/27 08:56:02;;;;;;;8.83;5.13;;;;;;;;;;5049455;28;20199;-63
2022/08/27 08:58:38;;;;;;;9.13;5.47;;;;;;;;;;5050180;28;20669;-63
2022/08/27 09:01:06;;;;;;;8.03;5.90;;;;;;;;;;5047948;28;20272;-64
2022/08/27 09:03:35;;;;;;;8.73;6.00;;;;;;;;;;5036399;28;20218;-63
2022/08/27 09:06:03;;;;;;;9.73;6.00;;;;;;;;;;5050115;28;20209;-63
2022/08/27 09:08:34;;;;;;;7.40;5.37;;;;;;;;;;5047748;28;20194;-63
2022/08/27 09:11:16;;;;;;;9.50;6.10;;;;;;;;;;5041417;28;20195;-63
2022/08/27 09:13:46;;;;;;;11.43;5.87;;;;;;;;;;5029811;28;20276;-62
2022/08/27 09:16:13;;;;;;;7.70;5.50;;;;;;;;;;5049693;28;20186;-64
2022/08/27 09:18:40;;;;;;;6.70;5.23;;;;;;;;;;5046771;28;20187;-64
2022/08/27 09:21:16;;;;;;;9.50;6.00;;;;;;;;;;5030421;28;20183;-63
2022/08/27 09:23:56;;;;;;;7.07;5.70;;;;;;;;;;5047270;28;20191;-64
2022/08/27 09:26:25;;;;;;;11.67;6.07;;;;;;;;;;5049678;28;20620;-63
2022/08/27 09:32:02;;;;;;;6.57;5.13;;;;;;;;;;5043909;28;20202;-64
2022/08/27 09:34:47;;;;;;;7.53;5.47;;;;;;;;;;5046203;28;20213;-64
2022/08/27 09:37:16;;;;;;;10.93;5.43;;;;;;;;;;5045243;28;20276;-63
2022/08/27 09:39:43;;;;;;;8.43;5.87;;;;;;;;;;5049585;28;20800;-63
2022/08/27 09:42:18;;;;;;;8.87;6.37;;;;;;;;;;5045882;28;20186;-64
2022/08/27 09:44:46;;;;;;;12.57;6.00;;;;;;;;;;5037045;28;20222;-64
2022/08/27 09:47:19;;;;;;;8.23;5.97;;;;;;;;;;5049636;28;20195;-64
2022/08/27 09:50:04;;;;;;;9.20;5.50;;;;;;;;;;5042741;28;20232;-64
2022/08/27 09:52:34;;;;;;;6.87;5.60;;;;;;;;;;5047289;28;20232;-65
2022/08/27 09:55:34;;;;;;;6.60;5.47;;;;;;;;;;5021724;28;20177;-64
2022/08/27 09:58:05;;;;;;;8.97;5.87;;;;;;;;;;5045831;28;20182;-64
2022/08/27 10:00:38;;;;;;;8.80;5.50;;;;;;;;;;5029227;28;20190;-64
2022/08/27 10:03:06;;;;;;;8.47;5.83;;;;;;;;;;5025306;28;20210;-64
2022/08/27 10:05:37;;;;;;;8.43;5.73;;;;;;;;;;5048206;28;20191;-64
2022/08/27 10:08:17;;;;;;;11.60;6.17;;;;;;;;;;5049028;28;20204;-65
2022/08/27 10:10:59;;;;;;;8.37;5.67;;;;;;;;;;5047273;28;20277;-64
2022/08/27 10:13:46;;;;;;;8.10;6.10;;;;;;;;;;5047050;28;20305;-66
2022/08/27 10:16:13;;;;;;;6.67;6.03;;;;;;;;;;5007870;28;20213;-66
2022/08/27 10:18:40;;;;;;;7.70;5.90;;;;;;;;;;5030234;28;20183;-65
2022/08/27 10:21:15;;;;;;;8.17;5.53;;;;;;;;;;5048344;28;20286;-67
2022/08/27 10:23:45;;;;;;;7.93;5.70;;;;;;;;;;5046206;28;20194;-66
2022/08/27 10:26:20;;;;;;;6.10;5.50;;;;;;;;;;5048864;28;20706;-66
2022/08/27 10:29:06;;;;;;;9.73;5.63;;;;;;;;;;5045053;28;20281;-67
2022/08/27 10:31:38;;;;;;;8.07;5.67;;;;;;;;;;5048328;28;20207;-63
2022/08/27 10:34:06;;;;;;;6.60;5.50;;;;;;;;;;5048248;28;20203;-62
2022/08/27 10:36:56;;;;;;;11.97;6.00;;;;;;;;;;5037031;28;20227;-62
2022/08/27 10:39:58;;;;;;;10.23;5.70;;;;;;;;;;5038952;28;20622;-63
2022/08/27 10:42:34;;;;;;;9.07;5.80;;;;;;;;;;5048185;28;20664;-63
2022/08/27 10:45:02;;;;;;;13.57;6.10;;;;;;;;;;5043914;28;20186;-62
2022/08/27 10:47:35;;;;;;;8.33;5.37;;;;;;;;;;5048044;28;20186;-63
2022/08/27 10:50:06;;;;;;;7.90;5.90;;;;;;;;;;5044878;28;20217;-63
2022/08/27 10:52:33;;;;;;;12.67;5.27;;;;;;;;;;5045965;28;20215;-61
2022/08/27 10:55:13;;;;;;;8.57;5.50;;;;;;;;;;5047697;28;20179;-62
2022/08/27 10:57:59;;;;;;;6.67;5.77;;;;;;;;;;5042367;28;20352;-72
2022/08/27 11:00:37;;;;;;;6.03;5.27;;;;;;;;;;5044529;28;20190;-73
2022/08/27 11:06:32;;;;;;;8.33;5.60;;;;;;;;;;5040220;28;20268;-75
2022/08/27 11:09:19;;;;;;;6.80;5.60;;;;;;;;;;5012602;28;20187;-76
2022/08/27 11:11:52;;;;;;;8.03;5.33;;;;;;;;;;5021637;28;20215;-76
2022/08/27 11:21:45;;;;;;;7.27;5.40;;;;;;;;;;5039728;28;20209;-77
2022/08/27 11:24:27;;;;;;;8.17;5.27;;;;;;;;;;5039191;28;20210;-76
2022/08/27 11:27:02;;;;;;;6.87;5.57;;;;;;;;;;5037295;28;20654;-78
2022/08/27 11:29:44;;;;;;;9.67;6.57;;;;;;;;;;5022326;28;20186;-73
2022/08/27 11:32:15;;;;;;;9.43;7.23;;;;;;;;;;5039391;28;20206;-77
2022/08/27 11:38:54;;;;;;;10.77;8.20;;;;;;;;;;5041337;28;20189;-73
2022/08/27 11:41:22;;;;;;;12.00;8.47;;;;;;;;;;5037021;28;20198;-72
2022/08/27 11:52:27;;;;;;;11.03;8.27;;;;;;;;;;5041979;28;20215;-73
2022/08/27 11:55:21;;;;;;;11.53;8.27;;;;;;;;;;5041419;28;20589;-75
2022/08/27 11:57:49;;;;;;;9.93;7.77;;;;;;;;;;5047310;28;20191;-63
2022/08/27 12:00:20;;;;;;;9.13;6.83;;;;;;;;;;5029271;28;20198;-63
2022/08/27 12:03:10;;;;;;;8.83;6.70;;;;;;;;;;5028736;28;20610;-63
2022/08/27 12:05:48;;;;;;;10.67;7.80;;;;;;;;;;5047014;28;20182;-63
2022/08/27 12:08:20;;;;;;;8.87;7.40;;;;;;;;;;5047411;28;20904;-63
2022/08/27 12:10:57;;;;;;;8.00;7.30;;;;;;;;;;5046944;28;20734;-65
2022/08/27 12:13:42;;;;;;;9.20;6.87;;;;;;;;;;5047076;28;20585;-63
2022/08/27 12:16:15;;;;;;;10.20;7.40;;;;;;;;;;5029531;28;20593;-63
2022/08/27 12:19:00;;;;;;;10.40;7.70;;;;;;;;;;5045513;28;20681;-63
2022/08/27 12:21:32;;;;;;;12.30;7.50;;;;;;;;;;5046621;28;20281;-63
2022/08/27 12:23:59;;;;;;;10.27;7.60;;;;;;;;;;5046524;28;20488;-62
2022/08/27 12:26:30;;;;;;;8.20;7.40;;;;;;;;;;5047527;28;20566;-75
2022/08/27 12:29:16;;;;;;;8.00;7.20;;;;;;;;;;5045637;28;20191;-75
2022/08/27 12:31:44;;;;;;;10.10;7.40;;;;;;;;;;5046487;28;20824;-74
2022/08/27 12:34:36;;;;;;;10.23;7.80;;;;;;;;;;5044960;28;20609;-74
2022/08/27 12:37:02;;;;;;;8.60;7.20;;;;;;;;;;5040827;28;20194;-74
2022/08/27 12:39:48;;;;;;;8.53;6.90;;;;;;;;;;5037140;28;20684;-74
2022/08/27 12:42:17;;;;;;;9.40;7.10;;;;;;;;;;5033814;28;20341;-74
2022/08/27 12:44:45;;;;;;;7.80;7.00;;;;;;;;;;5047034;28;20191;-74
2022/08/27 12:47:14;;;;;;;11.47;7.37;;;;;;;;;;5046100;28;20199;-74
2022/08/27 12:49:48;;;;;;;7.73;6.87;;;;;;;;;;5036485;28;20256;-74
2022/08/27 12:52:40;;;;;;;9.50;7.20;;;;;;;;;;5030974;28;20705;-74
2022/08/27 12:55:21;;;;;;;9.40;6.80;;;;;;;;;;5050650;28;20218;-74
2022/08/27 12:58:15;;;;;;;7.97;6.73;;;;;;;;;;5049477;28;20190;-74
2022/08/27 13:04:36;;;;;;;9.77;7.30;;;;;;;;;;5044170;28;21202;-75
2022/08/27 13:07:41;;;;;;;11.47;7.60;;;;;;;;;;5001372;28;20230;-76
2022/08/27 13:10:52;;;;;;;9.03;7.67;;;;;;;;;;5041322;28;20306;-73
2022/08/27 13:13:20;;;;;;;10.23;7.03;;;;;;;;;;5024042;28;20218;-74
2022/08/27 13:15:48;;;;;;;10.03;7.17;;;;;;;;;;5042166;28;20196;-74
2022/08/27 13:18:15;;;;;;;11.07;7.27;;;;;;;;;;5040619;28;20206;-73
2022/08/27 13:20:43;;;;;;;9.70;7.40;;;;;;;;;;5039377;28;20224;-74
2022/08/27 13:23:21;;;;;;;9.67;7.10;;;;;;;;;;5040726;28;20205;-73
2022/08/27 13:26:01;;;;;;;8.03;7.07;;;;;;;;;;5021908;28;20309;-73
2022/08/27 13:28:45;;;;;;;12.43;7.57;;;;;;;;;;5043502;28;20538;-72
2022/08/27 13:31:12;;;;;;;8.80;6.90;;;;;;;;;;5050156;28;20187;-73
2022/08/27 13:33:39;;;;;;;10.50;7.90;;;;;;;;;;5050144;28;20594;-72
2022/08/27 13:36:08;;;;;;;8.10;7.27;;;;;;;;;;5032301;28;20187;-73
2022/08/27 13:38:43;;;;;;;13.37;8.00;;;;;;;;;;5050514;28;20199;-73
2022/08/27 13:41:31;;;;;;;9.90;7.27;;;;;;;;;;5035300;28;20224;-72
2022/08/27 13:44:08;;;;;;;10.73;7.30;;;;;;;;;;5031930;28;20191;-73
2022/08/27 13:46:40;;;;;;;10.27;7.70;;;;;;;;;;5032485;28;20186;-73
2022/08/27 13:49:11;;;;;;;8.57;7.53;;;;;;;;;;5049401;28;20528;-73
2022/08/27 13:51:57;;;;;;;9.33;7.50;;;;;;;;;;5018148;28;20183;-72
2022/08/27 13:54:24;;;;;;;8.83;7.70;;;;;;;;;;5032074;28;20194;-73
2022/08/27 13:56:56;;;;;;;8.73;7.67;;;;;;;;;;5049956;28;20559;-72
2022/08/27 13:59:24;;;;;;;12.73;7.63;;;;;;;;;;5015853;28;20221;-72
2022/08/27 14:02:00;;;;;;;10.30;7.90;;;;;;;;;;5032248;28;20213;-72
2022/08/27 14:04:34;;;;;;;9.23;7.37;;;;;;;;;;5031519;28;20202;-72
2022/08/27 14:07:22;;;;;;;8.60;7.67;;;;;;;;;;5049730;28;20217;-71
2022/08/27 14:09:50;;;;;;;10.57;7.37;;;;;;;;;;5049330;28;20186;-72
2022/08/27 14:12:23;;;;;;;9.23;7.87;;;;;;;;;;5049628;28;20190;-72
2022/08/27 14:14:58;;;;;;;11.00;7.50;;;;;;;;;;5049288;28;20222;-73
2022/08/27 14:17:27;;;;;;;10.63;7.47;;;;;;;;;;5032003;28;20183;-71
2022/08/27 14:19:58;;;;;;;9.20;7.10;;;;;;;;;;5047904;28;20190;-72
2022/08/27 14:22:26;;;;;;;9.97;7.53;;;;;;;;;;5031215;28;20593;-72
2022/08/27 14:24:53;;;;;;;9.87;7.00;;;;;;;;;;5052580;28;20318;-72
2022/08/27 14:27:20;;;;;;;8.03;7.20;;;;;;;;;;5049353;28;20538;-72
2022/08/27 14:29:48;;;;;;;11.07;7.20;;;;;;;;;;5049213;28;20665;-72
2022/08/27 14:32:17;;;;;;;11.03;7.50;;;;;;;;;;5064315;28;20289;-72
2022/08/27 14:34:45;;;;;;;10.17;7.57;;;;;;;;;;5063792;28;20593;-72
2022/08/27 14:37:12;;;;;;;8.13;6.70;;;;;;;;;;5060464;28;20195;-73
2022/08/27 14:39:56;;;;;;;12.83;7.50;;;;;;;;;;5061932;28;20171;-73
2022/08/27 14:42:23;;;;;;;8.83;7.00;;;;;;;;;;5049022;28;20191;-72
2022/08/27 14:45:08;;;;;;;9.97;6.70;;;;;;;;;;5041059;28;20175;-72
2022/08/27 14:47:36;;;;;;;8.00;6.57;;;;;;;;;;5047848;28;20195;-72
2022/08/27 14:50:03;;;;;;;9.37;6.97;;;;;;;;;;5048916;28;20214;-71
2022/08/27 14:52:30;;;;;;;8.00;7.10;;;;;;;;;;5031014;28;20202;-71
2022/08/27 14:54:57;;;;;;;8.73;6.70;;;;;;;;;;5048707;28;20747;-71
2022/08/27 14:57:24;;;;;;;8.40;6.20;;;;;;;;;;5048925;28;20199;-72
2022/08/27 14:59:51;;;;;;;8.67;6.60;;;;;;;;;;5048537;28;20201;-71
2022/08/27 15:02:19;;;;;;;7.27;6.37;;;;;;;;;;5053317;28;20187;-71
2022/08/27 15:04:46;;;;;;;9.07;6.80;;;;;;;;;;5059417;28;20199;-72
2022/08/27 15:07:13;;;;;;;9.97;6.47;;;;;;;;;;5047404;28;20190;-72
2022/08/27 15:09:40;;;;;;;7.33;6.30;;;;;;;;;;5048435;28;20610;-72
2022/08/27 15:12:08;;;;;;;6.83;6.17;;;;;;;;;;5048486;28;20237;-71
2022/08/27 15:14:51;;;;;;;10.03;6.47;;;;;;;;;;5046824;28;20225;-72
2022/08/27 15:17:36;;;;;;;8.83;6.87;;;;;;;;;;5036666;28;20189;-71
2022/08/27 15:20:03;;;;;;;8.00;6.53;;;;;;;;;;5063452;28;20198;-71
2022/08/27 15:22:32;;;;;;;8.00;6.43;;;;;;;;;;5034626;28;20187;-71
2022/08/27 15:24:59;;;;;;;8.50;6.40;;;;;;;;;;5045832;28;20219;-71
2022/08/27 15:27:30;;;;;;;8.07;6.53;;;;;;;;;;5048216;28;20198;-71
2022/08/27 15:30:08;;;;;;;7.67;6.13;;;;;;;;;;5062132;28;20205;-71
2022/08/27 15:32:38;;;;;;;9.97;6.07;;;;;;;;;;5046933;28;20224;-71
2022/08/27 15:35:07;;;;;;;7.33;6.50;;;;;;;;;;5063276;28;20185;-71
2022/08/27 15:37:34;;;;;;;10.67;6.30;;;;;;;;;;5047120;28;20278;-71
2022/08/27 15:40:01;;;;;;;8.63;7.10;;;;;;;;;;5045965;28;20194;-71
2022/08/27 15:42:28;;;;;;;9.67;8.37;;;;;;;;;;5059178;28;20863;-69
2022/08/27 15:44:55;;;;;;;8.67;7.63;;;;;;;;;;5036184;28;20189;-74
2022/08/27 15:47:22;;;;;;;9.73;7.33;;;;;;;;;;5040610;28;20206;-73
2022/08/27 15:49:49;;;;;;;10.90;8.03;;;;;;;;;;5007304;28;20609;-70
2022/08/27 15:52:18;;;;;;;8.10;6.40;;;;;;;;;;5042422;28;20198;-71
2022/08/27 15:54:47;;;;;;;8.57;7.50;;;;;;;;;;5038878;28;20218;-75
2022/08/27 15:57:16;;;;;;;10.93;9.83;;;;;;;;;;5022767;28;20187;-73
2022/08/27 15:59:43;;;;;;;8.97;6.47;;;;;;;;;;5039885;28;20189;-72